createdAt,value
2018-10-21T00:00:03.217Z,7.10
2018-10-21T00:02:31.736Z,7.10
2018-10-21T00:05:00.233Z,7.10
2018-10-21T00:07:28.728Z,7.10
2018-10-21T00:09:57.267Z,7.10
2018-10-21T00:12:25.704Z,7.10
2018-10-21T00:14:54.269Z,7.10
2018-10-21T00:17:22.779Z,7.10
2018-10-21T00:19:51.289Z,7.10
2018-10-21T00:22:19.770Z,7.10
2018-10-21T00:24:48.209Z,7.10
2018-10-21T00:27:16.772Z,7.10
2018-10-21T00:29:45.213Z,7.10
2018-10-21T00:32:18.985Z,7.10
2018-10-21T00:34:47.517Z,7.10
2018-10-21T00:37:15.938Z,7.20
2018-10-21T00:39:44.347Z,7.30
2018-10-21T00:42:12.804Z,7.40
2018-10-21T00:44:41.326Z,7.50
2018-10-21T00:47:09.799Z,7.70
2018-10-21T00:49:38.300Z,7.80
2018-10-21T00:52:07.036Z,8.00
2018-10-21T00:54:35.533Z,8.30
2018-10-21T00:57:10.573Z,8.40
2018-10-21T00:59:39.004Z,8.50
2018-10-21T01:02:07.483Z,8.70
2018-10-21T01:04:35.989Z,8.80
2018-10-21T01:07:04.545Z,9.00
2018-10-21T01:09:33.040Z,9.10
2018-10-21T01:12:01.570Z,9.20
2018-10-21T01:14:30.059Z,9.30
2018-10-21T01:16:58.579Z,9.40
2018-10-21T01:19:27.072Z,9.40
2018-10-21T01:21:55.581Z,9.50
2018-10-21T01:24:24.359Z,9.60
2018-10-21T01:26:52.799Z,9.60
2018-10-21T01:29:21.310Z,9.60
2018-10-21T01:31:49.789Z,9.60
2018-10-21T01:34:18.221Z,9.60
2018-10-21T01:36:46.794Z,9.60
2018-10-21T01:39:15.323Z,9.60
2018-10-21T01:41:43.741Z,9.70
2018-10-21T01:44:12.540Z,9.70
2018-10-21T01:46:41.842Z,9.80
2018-10-21T01:49:10.282Z,9.90
2018-10-21T01:51:38.695Z,9.90
2018-10-21T01:54:07.213Z,10.00
2018-10-21T01:56:35.668Z,10.10
2018-10-21T01:59:04.246Z,10.10
2018-10-21T02:01:32.666Z,10.10
2018-10-21T02:04:01.144Z,10.20
2018-10-21T02:06:29.549Z,10.20
2018-10-21T02:08:58.007Z,10.20
2018-10-21T02:11:26.414Z,10.20
2018-10-21T02:13:54.838Z,10.20
2018-10-21T02:16:23.282Z,10.20
2018-10-21T02:18:51.789Z,10.20
2018-10-21T02:21:20.228Z,10.10
2018-10-21T02:23:48.681Z,10.10
2018-10-21T02:26:17.304Z,10.20
2018-10-21T02:28:45.696Z,10.30
2018-10-21T02:31:14.244Z,10.30
2018-10-21T02:33:42.773Z,10.40
2018-10-21T02:36:11.166Z,10.40
2018-10-21T02:38:39.604Z,10.50
2018-10-21T02:41:20.949Z,10.60
2018-10-21T02:43:49.447Z,10.60
2018-10-21T02:46:17.891Z,10.60
2018-10-21T02:48:46.308Z,10.70
2018-10-21T02:51:14.911Z,10.70
2018-10-21T02:53:43.262Z,10.70
2018-10-21T02:56:12.274Z,10.70
2018-10-21T02:58:41.171Z,10.70
2018-10-21T03:01:09.674Z,10.70
2018-10-21T03:03:38.706Z,10.70
2018-10-21T03:06:07.170Z,10.70
2018-10-21T03:08:36.066Z,10.60
2018-10-21T03:11:04.558Z,10.70
2018-10-21T03:13:33.238Z,10.70
2018-10-21T03:16:01.836Z,10.70
2018-10-21T03:18:30.703Z,10.70
2018-10-21T03:20:59.120Z,10.70
2018-10-21T03:23:27.532Z,10.80
2018-10-21T03:25:56.025Z,10.80
2018-10-21T03:28:24.497Z,10.80
2018-10-21T03:30:52.976Z,10.80
2018-10-21T03:33:21.529Z,10.80
2018-10-21T03:35:49.888Z,10.90
2018-10-21T03:38:18.321Z,10.90
2018-10-21T03:40:46.772Z,10.90
2018-10-21T03:43:15.244Z,10.90
2018-10-21T03:45:43.673Z,10.90
2018-10-21T03:48:12.137Z,10.90
2018-10-21T03:50:40.567Z,10.90
2018-10-21T03:53:09.000Z,10.90
2018-10-21T03:55:42.041Z,10.90
2018-10-21T03:58:10.521Z,11.00
2018-10-21T04:00:39.030Z,10.90
2018-10-21T04:03:07.646Z,11.00
2018-10-21T04:05:36.330Z,11.00
2018-10-21T04:08:04.888Z,11.00
2018-10-21T04:10:33.600Z,11.00
2018-10-21T04:13:02.017Z,11.00
2018-10-21T04:15:30.482Z,11.00
2018-10-21T04:17:58.978Z,11.00
2018-10-21T04:20:27.729Z,11.00
2018-10-21T04:22:59.191Z,11.00
2018-10-21T04:25:28.919Z,11.00
2018-10-21T04:27:58.415Z,11.00
2018-10-21T04:30:27.899Z,11.00
2018-10-21T04:33:00.003Z,11.00
2018-10-21T04:35:29.123Z,11.00
2018-10-21T04:38:18.210Z,11.00
2018-10-21T04:40:46.685Z,11.00
2018-10-21T04:43:15.118Z,11.00
2018-10-21T04:45:43.563Z,10.90
2018-10-21T04:48:12.040Z,10.90
2018-10-21T04:50:40.467Z,10.80
2018-10-21T04:53:08.899Z,10.70
2018-10-21T04:55:37.373Z,10.60
2018-10-21T04:58:06.243Z,10.40
2018-10-21T05:00:34.728Z,10.30
2018-10-21T05:03:03.200Z,10.30
2018-10-21T05:05:31.654Z,10.20
2018-10-21T05:08:00.101Z,10.10
2018-10-21T05:10:32.872Z,10.10
2018-10-21T05:13:01.448Z,10.10
2018-10-21T05:15:31.061Z,10.10
2018-10-21T05:17:59.546Z,10.10
2018-10-21T05:20:28.040Z,10.10
2018-10-21T05:22:56.645Z,10.00
2018-10-21T05:25:25.273Z,10.00
2018-10-21T05:27:53.796Z,10.00
2018-10-21T05:30:22.293Z,9.90
2018-10-21T05:32:50.738Z,9.90
2018-10-21T05:35:20.000Z,9.90
2018-10-21T05:37:48.486Z,9.90
2018-10-21T05:40:18.426Z,9.90
2018-10-21T05:42:47.228Z,9.90
2018-10-21T05:45:15.794Z,9.90
2018-10-21T05:47:44.455Z,9.90
2018-10-21T05:50:14.113Z,9.90
2018-10-21T05:52:42.858Z,9.90
2018-10-21T05:55:12.033Z,9.80
2018-10-21T05:57:40.572Z,9.80
2018-10-21T06:00:14.986Z,9.70
2018-10-21T06:02:43.713Z,9.70
2018-10-21T06:05:49.073Z,9.60
2018-10-21T06:08:17.561Z,9.60
2018-10-21T06:10:46.041Z,9.40
2018-10-21T06:13:14.619Z,9.30
2018-10-21T06:15:43.095Z,9.30
2018-10-21T06:18:27.093Z,9.20
2018-10-21T06:20:59.060Z,9.20
2018-10-21T06:23:27.518Z,9.10
2018-10-21T06:25:56.006Z,9.10
2018-10-21T06:28:24.436Z,9.00
2018-10-21T06:30:52.878Z,9.00
2018-10-21T06:33:21.308Z,8.90
2018-10-21T06:35:49.760Z,8.80
2018-10-21T06:38:18.203Z,8.80
2018-10-21T06:40:46.643Z,8.80
2018-10-21T06:43:15.081Z,8.70
2018-10-21T06:45:43.567Z,8.70
2018-10-21T06:48:11.952Z,8.70
2018-10-21T06:50:40.405Z,8.70
2018-10-21T06:53:08.863Z,8.70
2018-10-21T06:55:37.290Z,8.70
2018-10-21T06:58:05.885Z,8.70
2018-10-21T07:00:34.359Z,8.70
2018-10-21T07:03:02.785Z,8.70
2018-10-21T07:06:40.434Z,8.70
2018-10-21T07:09:08.880Z,8.70
2018-10-21T07:11:37.410Z,8.80
2018-10-21T07:14:05.886Z,8.90
2018-10-21T07:16:34.472Z,8.90
2018-10-21T07:19:02.842Z,9.00
2018-10-21T07:21:31.313Z,9.00
2018-10-21T07:23:59.759Z,9.10
2018-10-21T07:26:28.211Z,9.20
2018-10-21T07:28:56.701Z,9.30
2018-10-21T07:31:25.125Z,9.40
2018-10-21T07:33:53.595Z,9.60
2018-10-21T07:36:22.067Z,9.80
2018-10-21T07:38:50.516Z,9.90
2018-10-21T07:41:18.938Z,10.10
2018-10-21T07:43:47.444Z,10.20
2018-10-21T07:46:15.909Z,10.30
2018-10-21T07:48:44.305Z,10.40
2018-10-21T07:51:12.781Z,10.50
2018-10-21T07:53:41.244Z,10.60
2018-10-21T07:56:09.662Z,10.70
2018-10-21T07:58:38.102Z,10.70
2018-10-21T08:01:06.626Z,10.80
2018-10-21T08:03:35.020Z,10.90
2018-10-21T08:06:35.769Z,11.00
2018-10-21T08:09:06.498Z,11.10
2018-10-21T08:11:35.021Z,11.20
2018-10-21T08:14:03.506Z,11.40
2018-10-21T08:16:31.950Z,11.40
2018-10-21T08:19:00.446Z,11.50
2018-10-21T08:21:28.954Z,11.60
2018-10-21T08:23:57.398Z,11.60
2018-10-21T08:26:25.869Z,11.70
2018-10-21T08:28:54.305Z,11.80
2018-10-21T08:31:22.778Z,11.90
2018-10-21T08:33:51.244Z,12.00
2018-10-21T08:36:19.692Z,12.10
2018-10-21T08:38:48.141Z,12.20
2018-10-21T08:41:16.648Z,12.40
2018-10-21T08:43:45.112Z,12.60
2018-10-21T08:46:13.627Z,12.80
2018-10-21T08:48:42.083Z,13.00
2018-10-21T08:51:10.525Z,13.20
2018-10-21T08:53:38.960Z,13.40
2018-10-21T08:56:07.437Z,13.70
2018-10-21T08:58:35.930Z,13.90
2018-10-21T09:01:04.458Z,14.10
2018-10-21T09:03:32.939Z,14.30
2018-10-21T09:06:01.412Z,14.50
2018-10-21T09:08:29.874Z,14.60
2018-10-21T09:10:58.397Z,14.80
2018-10-21T09:13:26.838Z,15.10
2018-10-21T09:15:55.339Z,15.50
2018-10-21T09:18:23.766Z,16.00
2018-10-21T09:20:52.208Z,16.90
2018-10-21T09:23:20.680Z,18.10
2018-10-21T09:25:49.152Z,19.40
2018-10-21T09:28:17.641Z,20.80
2018-10-21T09:30:46.105Z,22.00
2018-10-21T09:33:14.631Z,22.10
2018-10-21T09:35:43.112Z,22.20
2018-10-21T09:38:11.561Z,21.80
2018-10-21T09:40:40.016Z,21.70
2018-10-21T09:43:08.585Z,21.60
2018-10-21T09:45:37.040Z,22.40
2018-10-21T09:48:06.016Z,23.60
2018-10-21T09:50:34.492Z,24.50
2018-10-21T09:53:02.959Z,25.00
2018-10-21T09:55:31.397Z,24.80
2018-10-21T09:57:59.866Z,24.30
2018-10-21T10:00:33.822Z,23.90
2018-10-21T10:03:03.840Z,23.30
2018-10-21T10:05:32.312Z,22.50
2018-10-21T10:08:00.770Z,22.50
2018-10-21T10:10:29.256Z,22.20
2018-10-21T10:12:57.770Z,22.20
2018-10-21T10:15:29.570Z,22.40
2018-10-21T10:17:58.742Z,23.00
2018-10-21T10:20:27.273Z,23.60
2018-10-21T10:22:55.719Z,24.30
2018-10-21T10:25:24.210Z,24.40
2018-10-21T10:27:52.699Z,23.70
2018-10-21T10:30:21.170Z,23.50
2018-10-21T10:32:49.595Z,24.00
2018-10-21T10:35:18.027Z,24.80
2018-10-21T10:37:46.486Z,24.70
2018-10-21T10:40:15.010Z,24.80
2018-10-21T10:42:43.526Z,24.60
2018-10-21T10:45:12.006Z,25.00
2018-10-21T10:47:40.519Z,25.80
2018-10-21T10:50:10.366Z,26.80
2018-10-21T10:52:39.025Z,27.20
2018-10-21T10:55:07.987Z,27.30
2018-10-21T10:57:36.478Z,26.80
2018-10-21T11:00:05.732Z,27.00
2018-10-21T11:02:34.105Z,27.40
2018-10-21T11:05:02.557Z,28.00
2018-10-21T11:07:31.016Z,28.10
2018-10-21T11:09:59.491Z,29.30
2018-10-21T11:12:27.885Z,29.10
2018-10-21T11:14:56.483Z,29.30
2018-10-21T11:17:24.941Z,29.30
2018-10-21T11:19:53.377Z,29.60
2018-10-21T11:22:21.864Z,30.30
2018-10-21T11:24:50.372Z,30.90
2018-10-21T11:27:19.035Z,31.60
2018-10-21T11:29:48.778Z,31.90
2018-10-21T11:32:17.271Z,32.00
2018-10-21T11:34:45.723Z,32.20
2018-10-21T11:37:15.600Z,31.90
2018-10-21T11:39:44.595Z,31.70
2018-10-21T11:42:13.066Z,31.60
2018-10-21T11:44:41.491Z,32.00
2018-10-21T11:47:09.974Z,32.30
2018-10-21T11:49:38.432Z,32.40
2018-10-21T11:52:06.915Z,32.60
2018-10-21T11:54:35.444Z,32.80
2018-10-21T11:57:03.903Z,32.80
2018-10-21T11:59:32.381Z,32.70
2018-10-21T12:02:00.948Z,32.90
2018-10-21T12:04:29.434Z,32.80
2018-10-21T12:06:57.968Z,32.30
2018-10-21T12:09:26.392Z,32.20
2018-10-21T12:11:54.866Z,31.90
2018-10-21T12:14:23.436Z,31.80
2018-10-21T12:16:55.589Z,32.10
2018-10-21T12:19:24.076Z,32.30
2018-10-21T12:21:52.528Z,32.00
2018-10-21T12:24:21.037Z,31.70
2018-10-21T12:26:49.537Z,31.70
2018-10-21T12:29:18.065Z,32.10
2018-10-21T12:31:46.504Z,32.30
2018-10-21T12:34:15.120Z,32.90
2018-10-21T12:36:43.497Z,32.60
2018-10-21T12:39:12.467Z,33.00
2018-10-21T12:41:41.770Z,33.30
2018-10-21T12:44:10.264Z,32.60
2018-10-21T12:46:39.230Z,32.00
2018-10-21T12:49:07.720Z,31.90
2018-10-21T12:51:36.174Z,31.70
2018-10-21T12:54:04.940Z,31.40
2018-10-21T12:56:33.436Z,31.30
2018-10-21T12:59:01.926Z,31.50
2018-10-21T13:01:30.365Z,30.80
2018-10-21T13:03:58.799Z,30.90
2018-10-21T13:06:27.276Z,31.50
2018-10-21T13:08:55.757Z,31.70
2018-10-21T13:11:24.249Z,32.00
2018-10-21T13:13:53.326Z,32.10
2018-10-21T13:16:21.808Z,31.90
2018-10-21T13:18:50.283Z,31.80
2018-10-21T13:21:18.766Z,31.30
2018-10-21T13:23:47.250Z,31.20
2018-10-21T13:26:15.714Z,31.10
2018-10-21T13:28:44.214Z,30.90
2018-10-21T13:31:12.715Z,30.70
2018-10-21T13:33:41.233Z,30.90
2018-10-21T13:36:09.711Z,31.00
2018-10-21T13:38:38.222Z,31.10
2018-10-21T13:41:06.663Z,30.50
2018-10-21T13:43:35.117Z,30.40
2018-10-21T13:46:03.607Z,30.50
2018-10-21T13:48:31.985Z,30.20
2018-10-21T13:51:00.404Z,30.10
2018-10-21T13:53:28.928Z,30.20
2018-10-21T13:55:57.358Z,30.50
2018-10-21T13:58:25.810Z,30.30
2018-10-21T14:00:54.367Z,30.10
2018-10-21T14:03:22.731Z,30.00
2018-10-21T14:05:51.165Z,30.10
2018-10-21T14:08:19.611Z,30.10
2018-10-21T14:10:48.044Z,29.90
2018-10-21T14:13:16.574Z,29.70
2018-10-21T14:15:45.006Z,29.90
2018-10-21T14:18:13.409Z,29.90
2018-10-21T14:20:41.858Z,29.40
2018-10-21T14:23:10.323Z,29.40
2018-10-21T14:25:38.772Z,29.40
2018-10-21T14:28:07.222Z,29.20
2018-10-21T14:30:35.728Z,29.40
2018-10-21T14:33:04.218Z,28.60
2018-10-21T14:35:32.604Z,28.10
2018-10-21T14:38:01.132Z,27.60
2018-10-21T14:40:29.561Z,26.40
2018-10-21T14:42:58.058Z,25.20
2018-10-21T14:45:26.566Z,24.00
2018-10-21T14:47:55.031Z,22.90
2018-10-21T14:50:23.471Z,22.10
2018-10-21T14:52:51.908Z,21.50
2018-10-21T14:55:20.386Z,21.30
2018-10-21T14:57:48.833Z,21.20
2018-10-21T15:00:17.374Z,21.00
2018-10-21T15:02:45.792Z,20.80
2018-10-21T15:05:14.402Z,20.70
2018-10-21T15:07:44.896Z,20.70
2018-10-21T15:10:13.349Z,20.80
2018-10-21T15:12:41.810Z,20.60
2018-10-21T15:15:10.984Z,20.50
2018-10-21T15:17:39.538Z,20.40
2018-10-21T15:20:10.150Z,20.40
2018-10-21T15:22:45.223Z,20.40
2018-10-21T15:25:13.641Z,20.30
2018-10-21T15:27:42.498Z,20.30
2018-10-21T15:30:11.727Z,20.20
2018-10-21T15:32:40.840Z,20.00
2018-10-21T15:35:09.655Z,19.80
2018-10-21T15:37:38.173Z,19.60
2018-10-21T15:40:08.243Z,19.50
2018-10-21T15:42:36.731Z,19.30
2018-10-21T15:45:06.489Z,19.20
2018-10-21T15:47:34.996Z,19.00
2018-10-21T15:50:03.588Z,18.80
2018-10-21T15:52:32.058Z,18.60
2018-10-21T15:55:00.510Z,18.40
2018-10-21T15:57:29.016Z,18.20
2018-10-21T15:59:57.546Z,18.00
2018-10-21T16:02:26.130Z,17.90
2018-10-21T16:04:54.630Z,17.60
2018-10-21T16:07:23.103Z,17.40
2018-10-21T16:09:51.677Z,17.30
2018-10-21T16:12:20.157Z,17.20
2018-10-21T16:14:48.709Z,17.00
2018-10-21T16:17:17.210Z,16.90
2018-10-21T16:19:45.680Z,16.80
2018-10-21T16:22:14.311Z,16.70
2018-10-21T16:24:42.660Z,16.50
2018-10-21T16:27:11.131Z,16.40
2018-10-21T16:29:39.616Z,16.30
2018-10-21T16:32:08.350Z,16.10
2018-10-21T16:34:36.686Z,16.00
2018-10-21T16:37:05.257Z,15.90
2018-10-21T16:39:33.808Z,15.70
2018-10-21T16:42:02.316Z,15.60
2018-10-21T16:44:30.799Z,15.50
2018-10-21T16:46:59.315Z,15.30
2018-10-21T16:49:27.811Z,15.20
2018-10-21T16:51:56.254Z,15.00
2018-10-21T16:54:24.906Z,14.90
2018-10-21T16:56:53.283Z,14.80
2018-10-21T16:59:21.836Z,14.70
2018-10-21T17:01:50.338Z,14.60
2018-10-21T17:04:19.276Z,14.40
2018-10-21T17:06:47.956Z,14.30
2018-10-21T17:09:16.644Z,14.20
2018-10-21T17:11:45.095Z,14.10
2018-10-21T17:14:13.539Z,14.00
2018-10-21T17:16:41.993Z,13.90
2018-10-21T17:19:10.526Z,13.90
2018-10-21T17:21:39.000Z,13.80
2018-10-21T17:24:07.481Z,13.80
2018-10-21T17:26:36.411Z,13.70
2018-10-21T17:29:05.251Z,13.60
2018-10-21T17:31:33.760Z,13.50
2018-10-21T17:34:02.348Z,13.40
2018-10-21T17:36:30.843Z,13.30
2018-10-21T17:38:59.297Z,13.20
2018-10-21T17:41:27.775Z,13.10
2018-10-21T17:43:56.217Z,13.00
2018-10-21T17:46:24.734Z,12.90
2018-10-21T17:48:53.194Z,12.80
2018-10-21T17:51:21.676Z,12.70
2018-10-21T17:53:50.143Z,12.60
2018-10-21T17:56:18.641Z,12.60
2018-10-21T17:58:47.126Z,12.50
2018-10-21T18:01:15.725Z,12.40
2018-10-21T18:03:44.095Z,12.40
2018-10-21T18:06:12.583Z,12.30
2018-10-21T18:08:41.037Z,12.30
2018-10-21T18:11:09.502Z,12.20
2018-10-21T18:13:37.984Z,12.20
2018-10-21T18:16:06.520Z,12.10
2018-10-21T18:18:34.967Z,12.10
2018-10-21T18:21:03.499Z,12.00
2018-10-21T18:23:31.965Z,11.90
2018-10-21T18:26:00.470Z,11.90
2018-10-21T18:28:28.911Z,11.90
2018-10-21T18:30:57.438Z,11.80
2018-10-21T18:33:26.526Z,11.80
2018-10-21T18:35:54.996Z,11.70
2018-10-21T18:38:23.465Z,11.70
2018-10-21T18:40:52.071Z,11.60
2018-10-21T18:43:20.460Z,11.60
2018-10-21T18:45:48.934Z,11.50
2018-10-21T18:48:17.428Z,11.50
2018-10-21T18:50:45.868Z,11.40
2018-10-21T18:53:14.328Z,11.40
2018-10-21T18:55:42.758Z,11.40
2018-10-21T18:58:11.301Z,11.30
2018-10-21T19:00:39.716Z,11.30
2018-10-21T19:03:08.203Z,11.20
2018-10-21T19:05:36.684Z,11.20
2018-10-21T19:08:05.207Z,11.10
2018-10-21T19:10:34.313Z,11.10
2018-10-21T19:13:02.791Z,11.10
2018-10-21T19:15:31.241Z,11.00
2018-10-21T19:17:59.641Z,11.00
2018-10-21T19:20:28.103Z,10.90
2018-10-21T19:22:56.555Z,10.90
2018-10-21T19:25:25.051Z,10.90
2018-10-21T19:27:53.588Z,10.90
2018-10-21T19:30:22.014Z,10.80
2018-10-21T19:32:50.474Z,10.80
2018-10-21T19:35:18.981Z,10.70
2018-10-21T19:37:47.446Z,10.70
2018-10-21T19:40:16.289Z,10.70
2018-10-21T19:42:45.019Z,10.60
2018-10-21T19:45:14.012Z,10.60
2018-10-21T19:47:42.910Z,10.60
2018-10-21T19:50:12.708Z,10.50
2018-10-21T19:52:42.131Z,10.50
2018-10-21T19:55:11.106Z,10.50
2018-10-21T19:57:39.515Z,10.50
2018-10-21T20:00:11.555Z,10.40
2018-10-21T20:02:40.010Z,10.40
2018-10-21T20:05:08.731Z,10.40
2018-10-21T20:07:37.177Z,10.30
2018-10-21T20:10:07.424Z,10.30
2018-10-21T20:12:35.875Z,10.30
2018-10-21T20:15:04.555Z,10.30
2018-10-21T20:17:33.016Z,10.30
2018-10-21T20:20:01.470Z,10.30
2018-10-21T20:22:29.905Z,10.30
2018-10-21T20:24:58.336Z,10.30
2018-10-21T20:27:26.787Z,10.40
2018-10-21T20:29:55.259Z,10.50
2018-10-21T20:32:23.707Z,10.70
2018-10-21T20:34:52.174Z,10.80
2018-10-21T20:37:20.688Z,11.00
2018-10-21T20:39:49.117Z,11.00
2018-10-21T20:42:17.643Z,11.10
2018-10-21T20:44:45.996Z,11.10
2018-10-21T20:47:14.438Z,11.10
2018-10-21T20:49:42.886Z,11.10
2018-10-21T20:52:11.339Z,11.00
2018-10-21T20:54:46.709Z,11.00
2018-10-21T20:57:15.609Z,10.90
2018-10-21T20:59:45.286Z,10.80
2018-10-21T21:02:14.573Z,10.70
2018-10-21T21:04:43.081Z,10.70
2018-10-21T21:07:11.874Z,10.60
2018-10-21T21:09:40.863Z,10.50
2018-10-21T21:12:09.371Z,10.50
2018-10-21T21:14:37.779Z,10.50
2018-10-21T21:17:06.222Z,10.40
2018-10-21T21:19:34.716Z,10.40
2018-10-21T21:22:03.262Z,10.40
2018-10-21T21:24:31.669Z,10.30
2018-10-21T21:27:00.133Z,10.30
2018-10-21T21:29:28.567Z,10.20
2018-10-21T21:31:57.023Z,10.20
2018-10-21T21:34:25.435Z,10.20
2018-10-21T21:36:53.873Z,10.10
2018-10-21T21:39:22.309Z,10.10
2018-10-21T21:41:50.761Z,10.10
2018-10-21T21:44:19.253Z,10.10
2018-10-21T21:46:47.861Z,10.00
2018-10-21T21:49:16.266Z,10.00
2018-10-21T21:51:44.694Z,10.00
2018-10-21T21:54:14.115Z,10.00
2018-10-21T21:56:44.777Z,10.00
2018-10-21T21:59:13.199Z,10.00
2018-10-21T22:01:41.619Z,9.90
2018-10-21T22:04:10.060Z,9.90
2018-10-21T22:06:38.651Z,9.90
2018-10-21T22:09:11.438Z,9.90
2018-10-21T22:11:39.948Z,9.80
2018-10-21T22:14:09.121Z,9.80
2018-10-21T22:16:37.587Z,9.80
2018-10-21T22:19:06.388Z,9.80
2018-10-21T22:21:35.374Z,9.80
2018-10-21T22:24:03.915Z,9.80
2018-10-21T22:26:32.307Z,9.80
2018-10-21T22:29:00.834Z,9.80
2018-10-21T22:31:29.249Z,9.80
2018-10-21T22:33:57.766Z,9.80
2018-10-21T22:36:26.208Z,9.80
2018-10-21T22:38:54.654Z,9.90
2018-10-21T22:41:23.098Z,10.00
2018-10-21T22:43:51.530Z,10.10
2018-10-21T22:46:20.110Z,10.10
2018-10-21T22:48:48.765Z,10.20
2018-10-21T22:51:17.214Z,10.20
2018-10-21T22:53:45.642Z,10.30
2018-10-21T22:56:14.152Z,10.30
2018-10-21T22:58:42.574Z,10.30
2018-10-21T23:01:10.979Z,10.30
2018-10-21T23:03:39.399Z,10.30
2018-10-21T23:06:07.946Z,10.30
2018-10-21T23:08:36.367Z,10.20
2018-10-21T23:11:04.867Z,10.10
2018-10-21T23:13:33.294Z,10.00
2018-10-21T23:16:01.804Z,10.00
2018-10-21T23:18:30.225Z,9.90
2018-10-21T23:20:58.652Z,9.90
2018-10-21T23:23:27.099Z,9.80
2018-10-21T23:25:55.509Z,9.80
2018-10-21T23:28:23.935Z,9.80
2018-10-21T23:30:52.401Z,9.80
2018-10-21T23:33:20.836Z,9.80
2018-10-21T23:35:49.297Z,9.90
2018-10-21T23:38:17.715Z,10.00
2018-10-21T23:40:46.128Z,10.10
2018-10-21T23:43:14.535Z,10.10
2018-10-21T23:45:42.942Z,10.20
2018-10-21T23:48:11.448Z,10.40
2018-10-21T23:50:39.911Z,10.50
2018-10-21T23:53:08.370Z,10.50
2018-10-21T23:55:36.793Z,10.60
2018-10-21T23:58:05.339Z,10.60
